createdAt,value
2023-02-06T00:01:28.084Z,-5.30
2023-02-06T00:03:55.521Z,-5.30
2023-02-06T00:06:22.609Z,-5.30
2023-02-06T00:08:49.888Z,-5.30
2023-02-06T00:11:17.520Z,-5.30
2023-02-06T00:13:45.600Z,-5.30
2023-02-06T00:16:21.051Z,-5.30
2023-02-06T00:18:50.655Z,-5.20
2023-02-06T00:21:20.376Z,-5.30
2023-02-06T00:23:49.099Z,-5.20
2023-02-06T00:26:16.120Z,-5.20
2023-02-06T00:28:43.869Z,-5.30
2023-02-06T00:31:11.293Z,-5.20
2023-02-06T00:33:38.732Z,-5.20
2023-02-06T00:36:06.117Z,-5.20
2023-02-06T00:38:33.729Z,-5.10
2023-02-06T00:41:00.657Z,-5.10
2023-02-06T00:43:28.141Z,-5.10
2023-02-06T00:45:56.936Z,-5.00
2023-02-06T00:48:24.749Z,-5.00
2023-02-06T00:50:52.938Z,-5.00
2023-02-06T00:53:20.675Z,-5.00
2023-02-06T00:55:47.822Z,-5.10
2023-02-06T00:58:15.396Z,-5.10
2023-02-06T01:00:42.418Z,-5.10
2023-02-06T01:03:10.288Z,-5.20
2023-02-06T01:05:37.616Z,-5.20
2023-02-06T01:08:05.204Z,-5.30
2023-02-06T01:10:32.637Z,-5.30
2023-02-06T01:12:59.982Z,-5.40
2023-02-06T01:15:27.038Z,-5.50
2023-02-06T01:17:54.280Z,-5.50
2023-02-06T01:20:22.971Z,-5.50
2023-02-06T01:22:51.492Z,-5.50
2023-02-06T01:25:18.731Z,-5.50
2023-02-06T01:27:46.340Z,-5.50
2023-02-06T01:30:14.024Z,-5.50
2023-02-06T01:32:42.409Z,-5.50
2023-02-06T01:35:11.103Z,-5.50
2023-02-06T01:37:39.532Z,-5.40
2023-02-06T01:40:09.692Z,-5.40
2023-02-06T01:42:38.146Z,-5.40
2023-02-06T01:45:40.564Z,-5.40
2023-02-06T01:48:25.379Z,-5.30
2023-02-06T01:50:56.216Z,-5.30
2023-02-06T01:53:24.887Z,-5.20
2023-02-06T01:55:54.104Z,-5.20
2023-02-06T01:58:32.111Z,-5.20
2023-02-06T02:01:00.361Z,-5.10
2023-02-06T02:03:30.158Z,-5.10
2023-02-06T02:06:01.544Z,-5.00
2023-02-06T02:08:43.539Z,-5.00
2023-02-06T02:11:16.352Z,-5.00
2023-02-06T02:13:44.215Z,-5.00
2023-02-06T02:16:39.651Z,-5.00
2023-02-06T02:19:18.648Z,-5.00
2023-02-06T02:22:04.570Z,-5.10
2023-02-06T02:24:57.057Z,-5.10
2023-02-06T02:27:38.734Z,-5.10
2023-02-06T02:30:21.361Z,-5.10
2023-02-06T02:32:51.249Z,-5.00
2023-02-06T02:35:29.138Z,-5.10
2023-02-06T02:38:10.673Z,-5.00
2023-02-06T02:40:53.814Z,-5.00
2023-02-06T02:43:31.695Z,-5.00
2023-02-06T02:46:25.606Z,-5.00
2023-02-06T02:48:56.301Z,-5.00
2023-02-06T02:51:24.512Z,-5.00
2023-02-06T02:53:51.585Z,-5.00
2023-02-06T02:56:23.884Z,-5.10
2023-02-06T02:58:58.211Z,-5.10
2023-02-06T03:01:35.557Z,-5.10
2023-02-06T03:04:10.879Z,-5.10
2023-02-06T03:06:59.891Z,-5.10
2023-02-06T03:09:50.996Z,-5.10
2023-02-06T03:12:25.909Z,-5.10
2023-02-06T03:15:01.383Z,-5.00
2023-02-06T03:17:41.257Z,-5.00
2023-02-06T03:20:11.033Z,-4.90
2023-02-06T03:22:40.926Z,-4.90
2023-02-06T03:25:14.030Z,-4.90
2023-02-06T03:27:43.360Z,-4.90
2023-02-06T03:30:13.935Z,-4.80
2023-02-06T03:32:45.474Z,-4.70
2023-02-06T03:35:17.894Z,-4.70
2023-02-06T03:37:46.073Z,-4.50
2023-02-06T03:40:14.212Z,-4.50
2023-02-06T03:42:48.263Z,-4.40
2023-02-06T03:45:41.872Z,-4.30
2023-02-06T03:48:13.533Z,-4.30
2023-02-06T03:50:44.116Z,-4.20
2023-02-06T03:53:13.200Z,-4.10
2023-02-06T03:55:41.846Z,-4.00
2023-02-06T03:58:14.770Z,-4.00
2023-02-06T04:00:44.444Z,-3.90
2023-02-06T04:03:13.065Z,-3.80
2023-02-06T04:05:41.008Z,-3.80
2023-02-06T04:08:08.633Z,-3.70
2023-02-06T04:10:35.584Z,-3.70
2023-02-06T04:13:02.864Z,-3.70
2023-02-06T04:15:29.821Z,-3.70
2023-02-06T04:18:01.010Z,-3.70
2023-02-06T04:20:29.297Z,-3.70
2023-02-06T04:22:58.449Z,-3.70
2023-02-06T04:25:25.975Z,-3.70
2023-02-06T04:27:53.259Z,-3.70
2023-02-06T04:30:20.345Z,-3.70
2023-02-06T04:32:47.690Z,-3.70
2023-02-06T04:35:14.713Z,-3.70
2023-02-06T04:37:41.999Z,-3.70
2023-02-06T04:40:09.663Z,-3.60
2023-02-06T04:42:36.867Z,-3.70
2023-02-06T04:45:04.217Z,-3.60
2023-02-06T04:47:31.589Z,-3.60
2023-02-06T04:49:58.530Z,-3.60
2023-02-06T04:52:25.794Z,-3.60
2023-02-06T04:54:52.767Z,-3.60
2023-02-06T04:57:20.696Z,-3.80
2023-02-06T04:59:47.720Z,-3.80
2023-02-06T05:02:15.155Z,-3.80
2023-02-06T05:04:42.113Z,-3.90
2023-02-06T05:07:09.334Z,-3.90
2023-02-06T05:09:36.361Z,-3.90
2023-02-06T05:12:05.064Z,-4.00
2023-02-06T05:14:32.059Z,-4.10
2023-02-06T05:16:59.329Z,-4.20
2023-02-06T05:19:26.265Z,-4.20
2023-02-06T05:21:53.456Z,-4.30
2023-02-06T05:24:20.563Z,-4.40
2023-02-06T05:26:47.759Z,-4.30
2023-02-06T05:29:14.686Z,-4.40
2023-02-06T05:31:42.218Z,-4.30
2023-02-06T05:34:10.381Z,-4.30
2023-02-06T05:36:37.705Z,-4.30
2023-02-06T05:39:04.960Z,-4.30
2023-02-06T05:41:32.325Z,-4.30
2023-02-06T05:43:59.444Z,-4.30
2023-02-06T05:46:26.764Z,-4.30
2023-02-06T05:48:53.932Z,-4.30
2023-02-06T05:51:21.223Z,-4.40
2023-02-06T05:53:48.356Z,-4.40
2023-02-06T05:56:15.577Z,-4.40
2023-02-06T05:58:42.528Z,-4.40
2023-02-06T06:01:11.431Z,-4.40
2023-02-06T06:03:38.602Z,-4.50
2023-02-06T06:06:06.781Z,-4.50
2023-02-06T06:08:34.016Z,-4.50
2023-02-06T06:11:02.704Z,-4.50
2023-02-06T06:13:29.695Z,-4.50
2023-02-06T06:15:57.164Z,-4.50
2023-02-06T06:18:24.239Z,-4.50
2023-02-06T06:20:51.514Z,-4.50
2023-02-06T06:23:18.559Z,-4.50
2023-02-06T06:25:47.298Z,-4.50
2023-02-06T06:28:14.860Z,-4.50
2023-02-06T06:30:43.594Z,-4.60
2023-02-06T06:33:10.620Z,-4.60
2023-02-06T06:35:38.357Z,-4.60
2023-02-06T06:38:05.414Z,-4.60
2023-02-06T06:40:32.965Z,-4.60
2023-02-06T06:43:00.017Z,-4.60
2023-02-06T06:45:27.533Z,-4.50
2023-02-06T06:47:54.579Z,-4.50
2023-02-06T06:50:21.951Z,-4.40
2023-02-06T06:52:48.897Z,-4.40
2023-02-06T06:55:16.684Z,-4.30
2023-02-06T06:57:43.663Z,-4.10
2023-02-06T07:00:11.870Z,-4.00
2023-02-06T07:02:38.913Z,-3.80
2023-02-06T07:05:06.800Z,-3.60
2023-02-06T07:07:33.871Z,-3.40
2023-02-06T07:10:02.664Z,-3.10
2023-02-06T07:12:29.672Z,-2.90
2023-02-06T07:14:56.982Z,-2.70
2023-02-06T07:17:23.954Z,-2.50
2023-02-06T07:19:52.584Z,-2.70
2023-02-06T07:22:20.589Z,-2.80
2023-02-06T07:24:48.361Z,-2.60
2023-02-06T07:27:15.508Z,-2.50
2023-02-06T07:29:42.878Z,-2.40
2023-02-06T07:32:10.529Z,-2.30
2023-02-06T07:34:37.924Z,-2.20
2023-02-06T07:37:04.961Z,-2.00
2023-02-06T07:39:32.536Z,-1.80
2023-02-06T07:41:59.467Z,-1.60
2023-02-06T07:44:26.746Z,-1.50
2023-02-06T07:46:53.687Z,-1.20
2023-02-06T07:49:21.256Z,-1.20
2023-02-06T07:51:48.356Z,-0.80
2023-02-06T07:54:15.563Z,-0.80
2023-02-06T07:56:43.212Z,-0.70
2023-02-06T07:59:10.775Z,-0.50
2023-02-06T08:01:37.904Z,-0.30
2023-02-06T08:04:05.317Z,0.10
2023-02-06T08:06:32.368Z,0.50
2023-02-06T08:08:59.617Z,0.90
2023-02-06T08:11:30.128Z,1.50
2023-02-06T08:13:58.034Z,2.30
2023-02-06T08:16:25.430Z,4.00
2023-02-06T08:18:52.906Z,6.20
2023-02-06T08:21:22.766Z,8.70
2023-02-06T08:24:00.800Z,11.30
2023-02-06T08:26:29.855Z,13.80
2023-02-06T08:28:58.825Z,15.40
2023-02-06T08:31:29.253Z,16.40
2023-02-06T08:33:56.889Z,16.90
2023-02-06T08:36:25.650Z,17.10
2023-02-06T08:38:53.185Z,17.50
2023-02-06T08:41:24.783Z,17.80
2023-02-06T08:43:55.277Z,18.00
2023-02-06T08:46:24.357Z,17.70
2023-02-06T08:48:58.810Z,17.30
2023-02-06T08:51:28.995Z,17.10
2023-02-06T08:53:58.211Z,17.10
2023-02-06T08:56:26.163Z,17.40
2023-02-06T08:58:56.161Z,17.40
2023-02-06T09:01:23.263Z,17.80
2023-02-06T09:03:54.356Z,18.00
2023-02-06T09:06:21.702Z,18.60
2023-02-06T09:08:48.935Z,18.80
2023-02-06T09:11:18.563Z,17.60
2023-02-06T09:13:49.383Z,15.60
2023-02-06T09:16:19.401Z,13.60
2023-02-06T09:18:47.283Z,13.00
2023-02-06T09:21:17.366Z,13.10
2023-02-06T09:23:47.720Z,13.80
2023-02-06T09:26:17.520Z,13.00
2023-02-06T09:28:45.267Z,10.70
2023-02-06T09:31:12.601Z,9.50
2023-02-06T09:33:40.536Z,8.90
2023-02-06T09:36:16.435Z,10.00
2023-02-06T09:38:46.280Z,10.00
2023-02-06T09:41:19.509Z,8.80
2023-02-06T09:43:53.415Z,7.40
2023-02-06T09:46:27.419Z,6.20
2023-02-06T09:48:57.414Z,5.20
2023-02-06T09:51:55.785Z,4.50
2023-02-06T09:54:45.186Z,4.20
2023-02-06T09:57:43.399Z,4.10
2023-02-06T10:00:16.927Z,4.40
2023-02-06T10:02:53.192Z,4.60
2023-02-06T10:06:08.075Z,4.50
2023-02-06T10:08:59.776Z,3.80
2023-02-06T10:11:41.632Z,3.80
2023-02-06T10:14:26.823Z,3.20
2023-02-06T10:17:02.951Z,2.40
2023-02-06T10:19:49.609Z,2.30
2023-02-06T10:22:56.806Z,1.70
2023-02-06T10:25:37.633Z,1.70
2023-02-06T10:28:21.229Z,1.80
2023-02-06T10:31:07.140Z,1.90
2023-02-06T10:33:40.403Z,2.20
2023-02-06T10:36:16.954Z,2.50
2023-02-06T10:39:00.624Z,2.60
2023-02-06T10:41:27.478Z,2.80
2023-02-06T10:44:20.815Z,2.60
2023-02-06T10:46:51.151Z,2.30
2023-02-06T10:49:24.976Z,2.20
2023-02-06T10:55:18.422Z,1.40
2023-02-06T10:57:47.387Z,0.70
2023-02-06T11:00:25.950Z,0.60
2023-02-06T11:03:07.087Z,0.60
2023-02-06T11:05:36.037Z,0.80
2023-02-06T11:08:21.756Z,0.80
2023-02-06T11:10:49.891Z,0.80
2023-02-06T11:13:31.124Z,0.70
2023-02-06T11:16:02.540Z,0.50
2023-02-06T11:18:34.490Z,0.30
2023-02-06T11:21:05.821Z,0.10
2023-02-06T11:23:35.041Z,0.00
2023-02-06T11:26:16.867Z,-0.20
2023-02-06T11:28:54.776Z,-0.20
2023-02-06T11:31:40.813Z,-0.30
2023-02-06T11:34:36.805Z,-0.30
2023-02-06T11:37:26.389Z,-0.30
2023-02-06T11:39:53.561Z,-0.30
2023-02-06T11:42:23.490Z,-0.30
2023-02-06T11:44:52.188Z,-0.20
2023-02-06T11:47:35.046Z,-0.20
2023-02-06T11:50:21.397Z,-0.40
2023-02-06T11:52:48.970Z,-0.40
2023-02-06T11:55:29.024Z,-0.40
2023-02-06T11:58:17.442Z,-0.40
2023-02-06T12:00:54.703Z,-0.40
2023-02-06T12:03:44.697Z,-0.50
2023-02-06T12:06:16.585Z,-0.50
2023-02-06T12:08:55.182Z,-0.40
2023-02-06T12:11:52.237Z,-0.40
2023-02-06T12:14:31.914Z,-0.40
2023-02-06T12:17:02.581Z,-0.50
2023-02-06T12:19:45.338Z,-0.50
2023-02-06T12:22:17.578Z,-0.40
2023-02-06T12:24:49.049Z,-0.50
2023-02-06T12:27:24.908Z,-0.50
2023-02-06T12:30:06.311Z,-0.50
2023-02-06T12:32:39.881Z,-0.40
2023-02-06T12:35:24.270Z,-0.40
2023-02-06T12:38:00.277Z,-0.40
2023-02-06T12:40:33.777Z,-0.20
2023-02-06T12:43:08.517Z,-0.40
2023-02-06T12:45:50.805Z,-0.40
2023-02-06T12:48:35.982Z,-0.50
2023-02-06T12:51:19.640Z,-0.60
2023-02-06T12:53:52.589Z,-0.70
2023-02-06T12:56:37.150Z,-0.80
2023-02-06T12:59:38.540Z,-0.90
2023-02-06T13:02:40.072Z,-1.00
2023-02-06T13:05:20.211Z,-1.00
2023-02-06T13:07:49.989Z,-1.00
2023-02-06T13:10:20.691Z,-1.00
2023-02-06T13:12:59.707Z,-1.00
2023-02-06T13:15:35.987Z,-1.10
2023-02-06T13:18:41.917Z,-1.10
2023-02-06T13:21:17.697Z,-1.10
2023-02-06T13:24:03.463Z,-1.10
2023-02-06T13:26:51.690Z,-1.10
2023-02-06T13:29:28.183Z,-1.20
2023-02-06T13:32:10.860Z,-1.30
2023-02-06T13:34:43.730Z,-1.30
2023-02-06T13:37:38.110Z,-1.30
2023-02-06T13:40:17.656Z,-1.30
2023-02-06T13:42:54.666Z,-1.40
2023-02-06T13:45:29.354Z,-1.40
2023-02-06T13:48:41.702Z,-1.40
2023-02-06T13:51:45.949Z,-1.40
2023-02-06T13:54:21.430Z,-1.40
2023-02-06T13:57:19.478Z,-1.50
2023-02-06T13:59:54.517Z,-1.50
2023-02-06T14:02:30.278Z,-1.50
2023-02-06T14:04:58.692Z,-1.40
2023-02-06T14:08:01.220Z,-1.50
2023-02-06T14:10:55.154Z,-1.50
2023-02-06T14:13:56.513Z,-1.60
2023-02-06T14:16:49.521Z,-1.60
2023-02-06T14:19:46.688Z,-1.70
2023-02-06T14:22:25.417Z,-1.80
2023-02-06T14:25:05.369Z,-1.90
2023-02-06T14:27:53.842Z,-1.90
2023-02-06T14:30:33.835Z,-2.00
2023-02-06T14:33:38.001Z,-2.00
2023-02-06T14:36:21.584Z,-2.10
2023-02-06T14:39:08.352Z,-2.10
2023-02-06T14:41:39.583Z,-2.20
2023-02-06T14:44:16.057Z,-2.30
2023-02-06T14:46:43.585Z,-2.30
2023-02-06T14:49:17.437Z,-2.40
2023-02-06T14:51:49.503Z,-2.50
2023-02-06T14:54:38.466Z,-2.40
2023-02-06T14:57:16.527Z,-2.30
2023-02-06T14:59:57.882Z,-2.60
2023-02-06T15:02:29.588Z,-2.70
2023-02-06T15:04:57.395Z,-2.70
2023-02-06T15:07:42.831Z,-2.70
2023-02-06T15:10:28.621Z,-2.90
2023-02-06T15:12:56.600Z,-3.00
2023-02-06T15:15:34.233Z,-3.00
2023-02-06T15:18:04.772Z,-3.10
2023-02-06T15:20:41.199Z,-2.90
2023-02-06T15:23:20.056Z,-3.20
2023-02-06T15:26:32.149Z,-3.10
2023-02-06T15:29:01.514Z,-3.20
2023-02-06T15:31:29.491Z,-3.30
2023-02-06T15:34:01.175Z,-3.40
2023-02-06T15:36:32.597Z,-3.40
2023-02-06T15:39:01.725Z,-3.50
2023-02-06T15:41:31.003Z,-3.60
2023-02-06T15:44:07.067Z,-3.60
2023-02-06T15:46:34.189Z,-3.70
2023-02-06T15:49:01.508Z,-3.70
2023-02-06T15:51:40.818Z,-3.80
2023-02-06T15:54:18.913Z,-3.90
2023-02-06T15:56:50.782Z,-3.90
2023-02-06T15:59:25.420Z,-4.00
2023-02-06T16:01:55.651Z,-4.00
2023-02-06T16:04:29.390Z,-4.00
2023-02-06T16:07:28.628Z,-4.00
2023-02-06T16:10:04.039Z,-4.00
2023-02-06T16:12:40.179Z,-4.10
2023-02-06T16:15:28.141Z,-4.10
2023-02-06T16:17:56.083Z,-4.20
2023-02-06T16:20:37.029Z,-4.30
2023-02-06T16:23:24.230Z,-4.40
2023-02-06T16:26:19.538Z,-4.50
2023-02-06T16:28:57.338Z,-4.50
2023-02-06T16:31:27.275Z,-4.60
2023-02-06T16:33:55.869Z,-4.60
2023-02-06T16:36:24.201Z,-4.70
2023-02-06T16:39:03.254Z,-4.80
2023-02-06T16:41:37.655Z,-4.90
2023-02-06T16:44:10.464Z,-4.90
2023-02-06T16:46:38.015Z,-4.90
2023-02-06T16:49:13.603Z,-4.90
2023-02-06T16:51:43.021Z,-4.90
2023-02-06T16:54:25.493Z,-5.00
2023-02-06T16:56:55.628Z,-5.10
2023-02-06T16:59:22.930Z,-5.10
2023-02-06T17:01:50.590Z,-5.40
2023-02-06T17:04:17.658Z,-5.50
2023-02-06T17:06:45.473Z,-5.90
2023-02-06T17:09:14.010Z,-5.90
2023-02-06T17:11:41.321Z,-6.00
2023-02-06T17:14:11.726Z,-6.00
2023-02-06T17:16:39.131Z,-6.10
2023-02-06T17:19:06.338Z,-6.10
2023-02-06T17:21:33.828Z,-6.10
2023-02-06T17:24:00.877Z,-6.10
2023-02-06T17:26:28.238Z,-6.00
2023-02-06T17:28:55.248Z,-6.00
2023-02-06T17:31:22.749Z,-6.00
2023-02-06T17:33:50.208Z,-6.00
2023-02-06T17:36:29.613Z,-5.90
2023-02-06T17:38:59.071Z,-5.90
2023-02-06T17:41:27.644Z,-5.90
2023-02-06T17:43:55.011Z,-5.90
2023-02-06T17:46:23.071Z,-5.90
2023-02-06T17:48:50.202Z,-5.90
2023-02-06T17:51:17.502Z,-5.90
2023-02-06T17:53:44.653Z,-5.90
2023-02-06T17:56:13.229Z,-5.90
2023-02-06T17:58:41.964Z,-5.90
2023-02-06T18:01:14.693Z,-5.90
2023-02-06T18:03:42.017Z,-6.00
2023-02-06T18:06:10.287Z,-6.00
2023-02-06T18:08:37.931Z,-6.10
2023-02-06T18:11:19.805Z,-6.10
2023-02-06T18:13:48.511Z,-6.10
2023-02-06T18:16:19.019Z,-6.20
2023-02-06T18:18:46.440Z,-6.30
2023-02-06T18:21:14.777Z,-6.30
2023-02-06T18:23:41.819Z,-6.30
2023-02-06T18:26:10.087Z,-6.30
2023-02-06T18:28:38.493Z,-6.30
2023-02-06T18:31:18.809Z,-6.30
2023-02-06T18:33:45.887Z,-6.40
2023-02-06T18:36:13.437Z,-6.40
2023-02-06T18:38:40.605Z,-6.40
2023-02-06T18:41:28.364Z,-6.40
2023-02-06T18:43:55.806Z,-6.50
2023-02-06T18:46:23.463Z,-6.50
2023-02-06T18:48:50.524Z,-6.60
2023-02-06T18:51:18.059Z,-6.70
2023-02-06T18:53:45.094Z,-6.70
2023-02-06T18:56:13.243Z,-6.70
2023-02-06T18:58:40.267Z,-6.80
2023-02-06T19:01:16.097Z,-6.80
2023-02-06T19:03:43.348Z,-6.90
2023-02-06T19:06:12.967Z,-6.90
2023-02-06T19:08:42.903Z,-6.90
2023-02-06T19:11:11.940Z,-6.80
2023-02-06T19:13:40.644Z,-6.80
2023-02-06T19:16:15.011Z,-6.80
2023-02-06T19:18:44.632Z,-6.80
2023-02-06T19:21:18.301Z,-6.70
2023-02-06T19:23:46.968Z,-6.70
2023-02-06T19:26:16.133Z,-6.60
2023-02-06T19:28:43.827Z,-6.60
2023-02-06T19:31:12.664Z,-6.60
2023-02-06T19:33:41.394Z,-6.60
2023-02-06T19:36:12.235Z,-6.60
2023-02-06T19:38:40.185Z,-6.70
2023-02-06T19:41:14.456Z,-6.60
2023-02-06T19:43:42.574Z,-6.60
2023-02-06T19:46:12.715Z,-6.50
2023-02-06T19:48:43.968Z,-6.50
2023-02-06T19:51:14.948Z,-6.50
2023-02-06T19:53:45.841Z,-6.60
2023-02-06T19:56:22.455Z,-6.60
2023-02-06T19:58:55.054Z,-6.60
2023-02-06T20:01:23.577Z,-6.60
2023-02-06T20:03:51.515Z,-6.60
2023-02-06T20:06:19.488Z,-6.60
2023-02-06T20:08:47.103Z,-6.60
2023-02-06T20:11:17.189Z,-6.60
2023-02-06T20:13:46.070Z,-6.60
2023-02-06T20:16:22.264Z,-6.60
2023-02-06T20:18:49.829Z,-6.70
2023-02-06T20:21:28.277Z,-6.70
2023-02-06T20:23:57.577Z,-6.70
2023-02-06T20:26:27.957Z,-6.70
2023-02-06T20:28:55.316Z,-6.60
2023-02-06T20:31:22.963Z,-6.60
2023-02-06T20:33:50.191Z,-6.60
2023-02-06T20:36:20.954Z,-6.50
2023-02-06T20:38:53.377Z,-6.50
2023-02-06T20:41:24.486Z,-6.50
2023-02-06T20:43:51.620Z,-6.50
2023-02-06T20:46:21.020Z,-6.50
2023-02-06T20:48:55.868Z,-6.50
2023-02-06T20:51:24.479Z,-6.50
2023-02-06T20:53:51.875Z,-6.50
2023-02-06T20:56:20.671Z,-6.50
2023-02-06T20:58:49.456Z,-6.50
2023-02-06T21:01:19.719Z,-6.60
2023-02-06T21:03:47.215Z,-6.60
2023-02-06T21:06:15.576Z,-6.60
2023-02-06T21:08:45.029Z,-6.60
2023-02-06T21:11:12.456Z,-6.60
2023-02-06T21:13:42.826Z,-6.60
2023-02-06T21:16:13.577Z,-6.50
2023-02-06T21:18:42.702Z,-6.60
2023-02-06T21:21:13.601Z,-6.60
2023-02-06T21:23:42.494Z,-6.50
2023-02-06T21:26:12.688Z,-6.50
2023-02-06T21:28:41.157Z,-6.50
2023-02-06T21:31:13.772Z,-6.50
2023-02-06T21:33:41.106Z,-6.50
2023-02-06T21:36:08.643Z,-6.50
2023-02-06T21:38:36.669Z,-6.50
2023-02-06T21:41:13.318Z,-6.50
2023-02-06T21:43:40.727Z,-6.50
2023-02-06T21:46:09.210Z,-6.50
2023-02-06T21:48:37.021Z,-6.50
2023-02-06T21:51:15.765Z,-6.50
2023-02-06T21:53:43.947Z,-6.40
2023-02-06T21:56:17.499Z,-6.40
2023-02-06T21:58:45.383Z,-6.40
2023-02-06T22:01:21.221Z,-6.40
2023-02-06T22:03:48.633Z,-6.40
2023-02-06T22:06:16.960Z,-6.40
2023-02-06T22:08:48.050Z,-6.30
2023-02-06T22:11:16.862Z,-6.30
2023-02-06T22:13:44.743Z,-6.30
2023-02-06T22:16:13.865Z,-6.30
2023-02-06T22:18:41.959Z,-6.30
2023-02-06T22:21:14.783Z,-6.40
2023-02-06T22:23:42.923Z,-6.30
2023-02-06T22:26:14.167Z,-6.20
2023-02-06T22:28:42.138Z,-6.20
2023-02-06T22:31:11.278Z,-6.10
2023-02-06T22:33:39.032Z,-6.10
2023-02-06T22:36:14.110Z,-6.20
2023-02-06T22:38:42.640Z,-6.20
2023-02-06T22:41:14.822Z,-6.20
2023-02-06T22:43:42.897Z,-6.20
2023-02-06T22:46:16.848Z,-6.20
2023-02-06T22:48:43.939Z,-6.20
2023-02-06T22:51:11.485Z,-6.20
2023-02-06T22:53:39.092Z,-6.20
2023-02-06T22:56:29.225Z,-6.20
2023-02-06T22:59:07.511Z,-6.20
2023-02-06T23:01:39.239Z,-6.20
2023-02-06T23:04:08.537Z,-6.20
2023-02-06T23:06:36.195Z,-6.20
2023-02-06T23:09:06.302Z,-6.20
2023-02-06T23:11:34.091Z,-6.10
2023-02-06T23:14:03.408Z,-6.10
2023-02-06T23:16:32.395Z,-6.10
2023-02-06T23:19:01.927Z,-6.10
2023-02-06T23:21:29.617Z,-6.10
2023-02-06T23:23:57.068Z,-6.10
2023-02-06T23:26:24.499Z,-6.20
2023-02-06T23:28:51.791Z,-6.20
2023-02-06T23:31:19.494Z,-6.20
2023-02-06T23:33:46.587Z,-6.30
2023-02-06T23:36:16.515Z,-6.30
2023-02-06T23:38:44.303Z,-6.40
2023-02-06T23:41:17.795Z,-6.40
2023-02-06T23:43:45.341Z,-6.40
2023-02-06T23:46:13.026Z,-6.40
2023-02-06T23:48:40.129Z,-6.40
2023-02-06T23:51:07.651Z,-6.40
2023-02-06T23:53:34.855Z,-6.40
2023-02-06T23:56:02.934Z,-6.40
2023-02-06T23:58:29.931Z,-6.40
